sensor_id;sensor_type;location;lat;lon;timestamp;pressure;altitude;pressure_sealevel;temperature
45701;BMP280;36277;32.852;-116.998;2023-05-23T00:00:57;99798.47;;;26.29
45701;BMP280;36277;32.852;-116.998;2023-05-23T00:03:24;99809.53;;;26.29
45701;BMP280;36277;32.852;-116.998;2023-05-23T00:05:51;99800.38;;;26.28
45701;BMP280;36277;32.852;-116.998;2023-05-23T00:08:17;99804.00;;;26.29
45701;BMP280;36277;32.852;-116.998;2023-05-23T00:10:44;99801.22;;;26.29
45701;BMP280;36277;32.852;-116.998;2023-05-23T00:13:11;99795.47;;;26.30
45701;BMP280;36277;32.852;-116.998;2023-05-23T00:15:38;99794.41;;;26.31
45701;BMP280;36277;32.852;-116.998;2023-05-23T00:18:06;99797.16;;;26.31
45701;BMP280;36277;32.852;-116.998;2023-05-23T00:20:40;99800.56;;;26.33
45701;BMP280;36277;32.852;-116.998;2023-05-23T00:23:08;99800.56;;;26.33
45701;BMP280;36277;32.852;-116.998;2023-05-23T00:25:35;99802.28;;;26.34
45701;BMP280;36277;32.852;-116.998;2023-05-23T00:28:03;99794.59;;;26.36
45701;BMP280;36277;32.852;-116.998;2023-05-23T00:30:30;99796.31;;;26.37
45701;BMP280;36277;32.852;-116.998;2023-05-23T00:32:57;99794.19;;;26.39
45701;BMP280;36277;32.852;-116.998;2023-05-23T00:35:23;99798.66;;;26.40
45701;BMP280;36277;32.852;-116.998;2023-05-23T00:37:50;99801.41;;;26.40
45701;BMP280;36277;32.852;-116.998;2023-05-23T00:40:20;99804.81;;;26.42
45701;BMP280;36277;32.852;-116.998;2023-05-23T00:42:47;99798.66;;;26.40
45701;BMP280;36277;32.852;-116.998;2023-05-23T00:45:13;99804.19;;;26.40
45701;BMP280;36277;32.852;-116.998;2023-05-23T00:47:41;99804.19;;;26.40
45701;BMP280;36277;32.852;-116.998;2023-05-23T00:50:10;99803.13;;;26.41
45701;BMP280;36277;32.852;-116.998;2023-05-23T00:52:37;99803.13;;;26.41
45701;BMP280;36277;32.852;-116.998;2023-05-23T00:55:04;99800.13;;;26.42
45701;BMP280;36277;32.852;-116.998;2023-05-23T00:57:31;99801.03;;;26.43
45701;BMP280;36277;32.852;-116.998;2023-05-23T01:00:00;99804.81;;;26.42
45701;BMP280;36277;32.852;-116.998;2023-05-23T01:02:27;99806.56;;;26.43
45701;BMP280;36277;32.852;-116.998;2023-05-23T01:04:58;99809.09;;;26.44
45701;BMP280;36277;32.852;-116.998;2023-05-23T01:07:27;99804.41;;;26.45
45701;BMP280;36277;32.852;-116.998;2023-05-23T01:09:53;99801.03;;;26.43
45701;BMP280;36277;32.852;-116.998;2023-05-23T01:18:01;99810.16;;;26.43
45701;BMP280;36277;32.852;-116.998;2023-05-23T01:20:33;99806.56;;;26.43
45701;BMP280;36277;32.852;-116.998;2023-05-23T01:23:10;99807.19;;;26.45
45701;BMP280;36277;32.852;-116.998;2023-05-23T01:26:13;99813.56;;;26.45
45701;BMP280;36277;32.852;-116.998;2023-05-23T01:28:50;99809.31;;;26.43
45701;BMP280;36277;32.852;-116.998;2023-05-23T01:31:21;99813.13;;;26.42
45701;BMP280;36277;32.852;-116.998;2023-05-23T01:33:50;99810.16;;;26.43
45701;BMP280;36277;32.852;-116.998;2023-05-23T01:36:18;99807.59;;;26.42
45701;BMP280;36277;32.852;-116.998;2023-05-23T01:38:45;99804.81;;;26.42
45701;BMP280;36277;32.852;-116.998;2023-05-23T01:41:11;99815.03;;;26.41
45701;BMP280;36277;32.852;-116.998;2023-05-23T01:43:38;99813.97;;;26.42
45701;BMP280;36277;32.852;-116.998;2023-05-23T01:46:05;99821.44;;;26.42
45701;BMP280;36277;32.852;-116.998;2023-05-23T01:48:32;99813.31;;;26.40
45701;BMP280;36277;32.852;-116.998;2023-05-23T01:51:00;99815.88;;;26.42
45701;BMP280;36277;32.852;-116.998;2023-05-23T01:53:27;99814.19;;;26.41
45701;BMP280;36277;32.852;-116.998;2023-05-23T01:55:56;99813.13;;;26.42
45701;BMP280;36277;32.852;-116.998;2023-05-23T01:58:22;99817.16;;;26.39
45701;BMP280;36277;32.852;-116.998;2023-05-23T02:00:48;99812.69;;;26.38
45701;BMP280;36277;32.852;-116.998;2023-05-23T02:03:15;99818.44;;;26.37
45701;BMP280;36277;32.852;-116.998;2023-05-23T02:05:42;99821.22;;;26.37
45701;BMP280;36277;32.852;-116.998;2023-05-23T02:08:08;99819.75;;;26.35
45701;BMP280;36277;32.852;-116.998;2023-05-23T02:10:34;99821.63;;;26.34
45701;BMP280;36277;32.852;-116.998;2023-05-23T02:13:01;99819.94;;;26.33
45701;BMP280;36277;32.852;-116.998;2023-05-23T02:15:27;99829.31;;;26.32
45701;BMP280;36277;32.852;-116.998;2023-05-23T02:17:53;99832.06;;;26.32
45701;BMP280;36277;32.852;-116.998;2023-05-23T02:20:19;99824.63;;;26.33
45701;BMP280;36277;32.852;-116.998;2023-05-23T02:22:45;99829.94;;;26.34
45701;BMP280;36277;32.852;-116.998;2023-05-23T02:25:12;99830.81;;;26.35
45701;BMP280;36277;32.852;-116.998;2023-05-23T02:27:38;99832.50;;;26.36
45701;BMP280;36277;32.852;-116.998;2023-05-23T02:30:05;99835.06;;;26.37
45701;BMP280;36277;32.852;-116.998;2023-05-23T02:32:31;99835.69;;;26.39
45701;BMP280;36277;32.852;-116.998;2023-05-23T02:34:57;99831.22;;;26.38
45701;BMP280;36277;32.852;-116.998;2023-05-23T02:37:24;99836.31;;;26.41
45701;BMP280;36277;32.852;-116.998;2023-05-23T02:39:50;99830.56;;;26.42
45701;BMP280;36277;32.852;-116.998;2023-05-23T02:42:16;99828.69;;;26.43
45701;BMP280;36277;32.852;-116.998;2023-05-23T02:44:42;99837.00;;;26.43
45701;BMP280;36277;32.852;-116.998;2023-05-23T02:47:09;99836.78;;;26.44
45701;BMP280;36277;32.852;-116.998;2023-05-23T02:49:35;99839.75;;;26.43
45701;BMP280;36277;32.852;-116.998;2023-05-23T02:52:01;99840.59;;;26.43
45701;BMP280;36277;32.852;-116.998;2023-05-23T02:54:28;99845.28;;;26.43
45701;BMP280;36277;32.852;-116.998;2023-05-23T02:56:54;99840.41;;;26.45
45701;BMP280;36277;32.852;-116.998;2023-05-23T02:59:21;99847.00;;;26.44
45701;BMP280;36277;32.852;-116.998;2023-05-23T03:01:48;99844.00;;;26.45
45701;BMP280;36277;32.852;-116.998;2023-05-23T03:04:14;99842.31;;;26.44
45701;BMP280;36277;32.852;-116.998;2023-05-23T03:06:40;99838.47;;;26.39
45701;BMP280;36277;32.852;-116.998;2023-05-23T03:09:09;99852.94;;;26.41
45701;BMP280;36277;32.852;-116.998;2023-05-23T03:11:36;99851.47;;;26.45
45701;BMP280;36277;32.852;-116.998;2023-05-23T03:14:02;99847.00;;;26.44
45701;BMP280;36277;32.852;-116.998;2023-05-23T03:16:28;99859.53;;;26.46
45701;BMP280;36277;32.852;-116.998;2023-05-23T03:18:55;99863.19;;;26.47
45701;BMP280;36277;32.852;-116.998;2023-05-23T03:21:21;99866.59;;;26.49
45701;BMP280;36277;32.852;-116.998;2023-05-23T03:23:47;99871.25;;;26.48
45701;BMP280;36277;32.852;-116.998;2023-05-23T03:26:14;99867.66;;;26.48
45701;BMP280;36277;32.852;-116.998;2023-05-23T03:28:41;99861.25;;;26.47
45701;BMP280;36277;32.852;-116.998;2023-05-23T03:31:07;99871.25;;;26.48
45701;BMP280;36277;32.852;-116.998;2023-05-23T03:33:33;99874.25;;;26.47
45701;BMP280;36277;32.852;-116.998;2023-05-23T03:35:59;99872.31;;;26.47
45701;BMP280;36277;32.852;-116.998;2023-05-23T03:38:26;99875.94;;;26.48
45701;BMP280;36277;32.852;-116.998;2023-05-23T03:40:53;99873.19;;;26.48
45701;BMP280;36277;32.852;-116.998;2023-05-23T03:43:19;99873.81;;;26.50
45701;BMP280;36277;32.852;-116.998;2023-05-23T03:46:32;99871.88;;;26.50
45701;BMP280;36277;32.852;-116.998;2023-05-23T03:48:43;99878.09;;;26.46
45701;BMP280;36277;32.852;-116.998;2023-05-23T03:51:12;99884.03;;;26.49
45701;BMP280;36277;32.852;-116.998;2023-05-23T03:53:39;99884.66;;;26.51
45701;BMP280;36277;32.852;-116.998;2023-05-23T03:56:05;99877.19;;;26.52
45701;BMP280;36277;32.852;-116.998;2023-05-23T03:58:31;99879.97;;;26.52
45701;BMP280;36277;32.852;-116.998;2023-05-23T04:00:58;99891.91;;;26.52
45701;BMP280;36277;32.852;-116.998;2023-05-23T04:03:24;99889.13;;;26.52
45701;BMP280;36277;32.852;-116.998;2023-05-23T04:05:51;99893.81;;;26.52
45701;BMP280;36277;32.852;-116.998;2023-05-23T04:08:18;99893.81;;;26.52
45701;BMP280;36277;32.852;-116.998;2023-05-23T04:10:47;99893.81;;;26.52
45701;BMP280;36277;32.852;-116.998;2023-05-23T04:13:13;99903.81;;;26.53
45701;BMP280;36277;32.852;-116.998;2023-05-23T04:15:40;99904.03;;;26.51
45701;BMP280;36277;32.852;-116.998;2023-05-23T04:18:07;99911.47;;;26.51
45701;BMP280;36277;32.852;-116.998;2023-05-23T04:20:34;99903.19;;;26.51
45701;BMP280;36277;32.852;-116.998;2023-05-23T04:23:00;99914.47;;;26.49
45701;BMP280;36277;32.852;-116.998;2023-05-23T04:25:26;99915.53;;;26.48
45701;BMP280;36277;32.852;-116.998;2023-05-23T04:27:53;99923.66;;;26.50
45701;BMP280;36277;32.852;-116.998;2023-05-23T04:30:20;99928.31;;;26.49
45701;BMP280;36277;32.852;-116.998;2023-05-23T04:32:46;99927.91;;;26.46
45701;BMP280;36277;32.852;-116.998;2023-05-23T04:35:13;99925.78;;;26.48
45701;BMP280;36277;32.852;-116.998;2023-05-23T04:37:39;99926.59;;;26.48
45701;BMP280;36277;32.852;-116.998;2023-05-23T04:40:07;99934.06;;;26.48
45701;BMP280;36277;32.852;-116.998;2023-05-23T04:42:33;99936.84;;;26.48
45701;BMP280;36277;32.852;-116.998;2023-05-23T04:45:00;99934.91;;;26.48
45701;BMP280;36277;32.852;-116.998;2023-05-23T04:47:28;99935.13;;;26.47
45701;BMP280;36277;32.852;-116.998;2023-05-23T04:49:54;99943.03;;;26.50
45701;BMP280;36277;32.852;-116.998;2023-05-23T04:52:22;99939.38;;;26.49
45701;BMP280;36277;32.852;-116.998;2023-05-23T04:54:48;99945.78;;;26.50
45701;BMP280;36277;32.852;-116.998;2023-05-23T04:57:14;99948.56;;;26.50
45701;BMP280;36277;32.852;-116.998;2023-05-23T04:59:41;99952.59;;;26.47
45701;BMP280;36277;32.852;-116.998;2023-05-23T05:02:07;99951.31;;;26.50
45701;BMP280;36277;32.852;-116.998;2023-05-23T05:04:34;99962.59;;;26.48
45701;BMP280;36277;32.852;-116.998;2023-05-23T05:07:01;99959.41;;;26.45
45701;BMP280;36277;32.852;-116.998;2023-05-23T05:09:29;99957.69;;;26.44
45701;BMP280;36277;32.852;-116.998;2023-05-23T05:11:58;99955.78;;;26.44
45701;BMP280;36277;32.852;-116.998;2023-05-23T05:14:25;99956.00;;;26.43
45701;BMP280;36277;32.852;-116.998;2023-05-23T05:16:52;99957.88;;;26.36
45701;BMP280;36277;32.852;-116.998;2023-05-23T05:19:25;99953.81;;;26.38
45701;BMP280;36277;32.852;-116.998;2023-05-23T05:21:51;99957.88;;;26.36
45701;BMP280;36277;32.852;-116.998;2023-05-23T05:24:17;99955.53;;;26.20
45701;BMP280;36277;32.852;-116.998;2023-05-23T05:26:46;99960.84;;;26.09
45701;BMP280;36277;32.852;-116.998;2023-05-23T05:29:13;99960.81;;;25.96
45701;BMP280;36277;32.852;-116.998;2023-05-23T05:31:39;99975.03;;;25.93
45701;BMP280;36277;32.852;-116.998;2023-05-23T05:34:05;99971.69;;;25.97
45701;BMP280;36277;32.852;-116.998;2023-05-23T05:36:32;99972.94;;;26.01
45701;BMP280;36277;32.852;-116.998;2023-05-23T05:38:58;99970.81;;;26.03
45701;BMP280;36277;32.852;-116.998;2023-05-23T05:41:24;99957.84;;;26.04
45701;BMP280;36277;32.852;-116.998;2023-05-23T05:43:51;99964.03;;;26.06
45701;BMP280;36277;32.852;-116.998;2023-05-23T05:46:17;99966.78;;;26.06
45701;BMP280;36277;32.852;-116.998;2023-05-23T05:48:45;99964.63;;;26.01
45701;BMP280;36277;32.852;-116.998;2023-05-23T05:51:12;99979.72;;;25.86
45701;BMP280;36277;32.852;-116.998;2023-05-23T05:53:38;99977.53;;;25.75
45701;BMP280;36277;32.852;-116.998;2023-05-23T05:56:04;99977.47;;;25.62
45701;BMP280;36277;32.852;-116.998;2023-05-23T05:58:30;99981.63;;;25.32
45701;BMP280;36277;32.852;-116.998;2023-05-23T06:00:57;99978.06;;;25.11
45701;BMP280;36277;32.852;-116.998;2023-05-23T06:03:23;99979.34;;;24.81
45701;BMP280;36277;32.852;-116.998;2023-05-23T06:05:50;99993.00;;;24.61
45701;BMP280;36277;32.852;-116.998;2023-05-23T06:08:16;99986.63;;;24.61
45701;BMP280;36277;32.852;-116.998;2023-05-23T06:10:42;99987.59;;;24.74
45701;BMP280;36277;32.852;-116.998;2023-05-23T06:13:09;99985.97;;;24.86
45701;BMP280;36277;32.852;-116.998;2023-05-23T06:15:35;99989.84;;;24.92
45701;BMP280;36277;32.852;-116.998;2023-05-23T06:18:02;99987.34;;;24.97
45701;BMP280;36277;32.852;-116.998;2023-05-23T06:20:28;99990.94;;;24.97
45701;BMP280;36277;32.852;-116.998;2023-05-23T06:22:54;99994.22;;;24.80
45701;BMP280;36277;32.852;-116.998;2023-05-23T06:25:20;100001.84;;;24.50
45701;BMP280;36277;32.852;-116.998;2023-05-23T06:27:46;100002.31;;;24.60
45701;BMP280;36277;32.852;-116.998;2023-05-23T06:30:13;100004.56;;;24.71
45701;BMP280;36277;32.852;-116.998;2023-05-23T06:32:40;100014.97;;;24.76
45701;BMP280;36277;32.852;-116.998;2023-05-23T06:35:06;100013.34;;;24.81
45701;BMP280;36277;32.852;-116.998;2023-05-23T06:37:32;100018.91;;;24.88
45701;BMP280;36277;32.852;-116.998;2023-05-23T06:39:59;100014.03;;;24.90
45701;BMP280;36277;32.852;-116.998;2023-05-23T06:42:26;100013.63;;;24.93
45701;BMP280;36277;32.852;-116.998;2023-05-23T06:44:52;100020.47;;;24.97
45701;BMP280;36277;32.852;-116.998;2023-05-23T06:47:18;100013.69;;;24.99
45701;BMP280;36277;32.852;-116.998;2023-05-23T06:49:44;100007.75;;;25.02
45701;BMP280;36277;32.852;-116.998;2023-05-23T06:52:11;100012.00;;;25.05
45701;BMP280;36277;32.852;-116.998;2023-05-23T06:54:37;100008.00;;;25.07
45701;BMP280;36277;32.852;-116.998;2023-05-23T06:57:03;100012.25;;;25.10
45701;BMP280;36277;32.852;-116.998;2023-05-23T06:59:29;100015.03;;;25.10
45701;BMP280;36277;32.852;-116.998;2023-05-23T07:01:56;100006.50;;;25.11
45701;BMP280;36277;32.852;-116.998;2023-05-23T07:04:22;100013.75;;;25.12
45701;BMP280;36277;32.852;-116.998;2023-05-23T07:06:48;100015.66;;;25.12
45701;BMP280;36277;32.852;-116.998;2023-05-23T07:09:15;100014.63;;;25.13
45701;BMP280;36277;32.852;-116.998;2023-05-23T07:11:41;100016.34;;;25.14
45701;BMP280;36277;32.852;-116.998;2023-05-23T07:14:07;100021.66;;;25.15
45701;BMP280;36277;32.852;-116.998;2023-05-23T07:16:33;100029.94;;;25.15
45701;BMP280;36277;32.852;-116.998;2023-05-23T07:19:01;100035.94;;;25.19
45701;BMP280;36277;32.852;-116.998;2023-05-23T07:21:27;100034.22;;;25.18
45701;BMP280;36277;32.852;-116.998;2023-05-23T07:23:54;100038.69;;;25.19
45701;BMP280;36277;32.852;-116.998;2023-05-23T07:26:20;100045.06;;;25.19
45701;BMP280;36277;32.852;-116.998;2023-05-23T07:28:46;100034.22;;;25.18
45701;BMP280;36277;32.852;-116.998;2023-05-23T07:31:12;100034.22;;;25.18
45701;BMP280;36277;32.852;-116.998;2023-05-23T07:33:39;100037.66;;;25.20
45701;BMP280;36277;32.852;-116.998;2023-05-23T07:36:05;100038.31;;;25.22
45701;BMP280;36277;32.852;-116.998;2023-05-23T07:38:31;100038.31;;;25.22
45701;BMP280;36277;32.852;-116.998;2023-05-23T07:40:58;100043.59;;;25.23
45701;BMP280;36277;32.852;-116.998;2023-05-23T07:43:24;100035.31;;;25.23
45701;BMP280;36277;32.852;-116.998;2023-05-23T07:45:50;100031.72;;;25.23
45701;BMP280;36277;32.852;-116.998;2023-05-23T07:48:16;100038.31;;;25.22
45701;BMP280;36277;32.852;-116.998;2023-05-23T07:50:43;100033.81;;;25.21
45701;BMP280;36277;32.852;-116.998;2023-05-23T07:53:09;100033.81;;;25.21
45701;BMP280;36277;32.852;-116.998;2023-05-23T07:55:35;100032.13;;;25.20
45701;BMP280;36277;32.852;-116.998;2023-05-23T07:58:01;100031.06;;;25.21
45701;BMP280;36277;32.852;-116.998;2023-05-23T08:00:28;100028.50;;;25.19
45701;BMP280;36277;32.852;-116.998;2023-05-23T08:02:54;100030.19;;;25.20
45701;BMP280;36277;32.852;-116.998;2023-05-23T08:05:20;100028.31;;;25.21
45701;BMP280;36277;32.852;-116.998;2023-05-23T08:07:48;100028.31;;;25.21
45701;BMP280;36277;32.852;-116.998;2023-05-23T08:10:14;100027.44;;;25.20
45701;BMP280;36277;32.852;-116.998;2023-05-23T08:12:41;100033.81;;;25.21
45701;BMP280;36277;32.852;-116.998;2023-05-23T08:15:07;100034.66;;;25.21
45701;BMP280;36277;32.852;-116.998;2023-05-23T08:17:34;100035.06;;;25.18
45701;BMP280;36277;32.852;-116.998;2023-05-23T08:20:01;100037.66;;;25.20
45701;BMP280;36277;32.852;-116.998;2023-05-23T08:22:29;100039.75;;;25.18
45701;BMP280;36277;32.852;-116.998;2023-05-23T08:24:55;100031.47;;;25.18
45701;BMP280;36277;32.852;-116.998;2023-05-23T08:27:21;100035.94;;;25.19
45701;BMP280;36277;32.852;-116.998;2023-05-23T08:29:48;100038.69;;;25.19
45701;BMP280;36277;32.852;-116.998;2023-05-23T08:32:14;100040.41;;;25.20
45701;BMP280;36277;32.852;-116.998;2023-05-23T08:34:43;100035.53;;;25.22
45701;BMP280;36277;32.852;-116.998;2023-05-23T08:37:09;100035.06;;;25.18
45701;BMP280;36277;32.852;-116.998;2023-05-23T08:39:36;100034.22;;;25.18
45701;BMP280;36277;32.852;-116.998;2023-05-23T08:42:02;100034.22;;;25.18
45701;BMP280;36277;32.852;-116.998;2023-05-23T08:44:28;100028.91;;;25.16
45701;BMP280;36277;32.852;-116.998;2023-05-23T08:46:55;100033.75;;;25.14
45701;BMP280;36277;32.852;-116.998;2023-05-23T08:49:23;100028.41;;;25.13
45701;BMP280;36277;32.852;-116.998;2023-05-23T08:51:51;100035.00;;;25.12
45701;BMP280;36277;32.852;-116.998;2023-05-23T08:54:20;100027.78;;;25.11
45701;BMP280;36277;32.852;-116.998;2023-05-23T08:56:49;100029.47;;;25.12
45701;BMP280;36277;32.852;-116.998;2023-05-23T08:59:18;100035.00;;;25.12
45701;BMP280;36277;32.852;-116.998;2023-05-23T09:01:47;100045.00;;;25.13
45701;BMP280;36277;32.852;-116.998;2023-05-23T09:04:13;100033.28;;;25.11
45701;BMP280;36277;32.852;-116.998;2023-05-23T09:06:40;100045.41;;;25.10
45701;BMP280;36277;32.852;-116.998;2023-05-23T09:09:06;100046.44;;;25.09
45701;BMP280;36277;32.852;-116.998;2023-05-23T09:11:33;100038.16;;;25.09
45701;BMP280;36277;32.852;-116.998;2023-05-23T09:14:00;100043.50;;;25.10
45701;BMP280;36277;32.852;-116.998;2023-05-23T09:16:31;100041.59;;;25.11
45701;BMP280;36277;32.852;-116.998;2023-05-23T09:19:09;100026.72;;;25.12
45701;BMP280;36277;32.852;-116.998;2023-05-23T09:21:36;100025.63;;;25.06
45701;BMP280;36277;32.852;-116.998;2023-05-23T09:24:06;100026.47;;;25.07
45701;BMP280;36277;32.852;-116.998;2023-05-23T09:26:33;100027.34;;;25.07
45701;BMP280;36277;32.852;-116.998;2023-05-23T09:29:00;100023.06;;;25.05
45701;BMP280;36277;32.852;-116.998;2023-05-23T09:31:26;100024.75;;;25.06
45701;BMP280;36277;32.852;-116.998;2023-05-23T09:33:57;100013.72;;;25.06
45701;BMP280;36277;32.852;-116.998;2023-05-23T09:36:27;100013.94;;;25.04
45701;BMP280;36277;32.852;-116.998;2023-05-23T09:39:03;100017.75;;;25.03
45701;BMP280;36277;32.852;-116.998;2023-05-23T09:41:35;100007.75;;;25.02
45701;BMP280;36277;32.852;-116.998;2023-05-23T09:44:07;100014.97;;;25.03
45701;BMP280;36277;32.852;-116.998;2023-05-23T09:46:37;100014.31;;;25.01
45701;BMP280;36277;32.852;-116.998;2023-05-23T09:49:14;100018.59;;;25.04
45701;BMP280;36277;32.852;-116.998;2023-05-23T09:51:42;100017.50;;;24.98
45701;BMP280;36277;32.852;-116.998;2023-05-23T09:54:08;100011.97;;;24.98
45701;BMP280;36277;32.852;-116.998;2023-05-23T09:56:39;100009.66;;;25.02
45701;BMP280;36277;32.852;-116.998;2023-05-23T09:59:12;99999.47;;;25.02
45701;BMP280;36277;32.852;-116.998;2023-05-23T10:01:40;100003.28;;;25.01
45701;BMP280;36277;32.852;-116.998;2023-05-23T10:04:08;100001.34;;;25.02
45701;BMP280;36277;32.852;-116.998;2023-05-23T10:06:40;99996.72;;;25.02
45701;BMP280;36277;32.852;-116.998;2023-05-23T10:09:12;100005.19;;;25.01
45701;BMP280;36277;32.852;-116.998;2023-05-23T10:14:40;99991.16;;;24.96
45701;BMP280;36277;32.852;-116.998;2023-05-23T10:17:18;99985.41;;;24.97
45701;BMP280;36277;32.852;-116.998;2023-05-23T10:19:52;99983.50;;;24.98
45701;BMP280;36277;32.852;-116.998;2023-05-23T10:22:24;99982.88;;;24.96
45701;BMP280;36277;32.852;-116.998;2023-05-23T10:24:50;99978.19;;;24.96
45701;BMP280;36277;32.852;-116.998;2023-05-23T10:27:18;99982.88;;;24.96
45701;BMP280;36277;32.852;-116.998;2023-05-23T10:29:44;99976.28;;;24.97
45701;BMP280;36277;32.852;-116.998;2023-05-23T10:32:11;99966.31;;;24.96
45701;BMP280;36277;32.852;-116.998;2023-05-23T10:35:00;99962.88;;;24.94
45701;BMP280;36277;32.852;-116.998;2023-05-23T10:40:30;99958.41;;;24.93
45701;BMP280;36277;32.852;-116.998;2023-05-23T10:43:04;99957.13;;;24.89
45701;BMP280;36277;32.852;-116.998;2023-05-23T10:45:40;99949.50;;;24.91
45701;BMP280;36277;32.852;-116.998;2023-05-23T10:48:41;99950.72;;;24.88
45701;BMP280;36277;32.852;-116.998;2023-05-23T10:51:07;99942.41;;;24.82
45701;BMP280;36277;32.852;-116.998;2023-05-23T10:53:36;99950.28;;;24.85
45701;BMP280;36277;32.852;-116.998;2023-05-23T10:56:07;99945.22;;;24.88
45701;BMP280;36277;32.852;-116.998;2023-05-23T10:58:40;99937.13;;;24.87
45701;BMP280;36277;32.852;-116.998;2023-05-23T11:01:08;99943.06;;;24.84
45701;BMP280;36277;32.852;-116.998;2023-05-23T11:06:36;99921.19;;;24.82
45701;BMP280;36277;32.852;-116.998;2023-05-23T11:09:05;99915.84;;;24.81
45701;BMP280;36277;32.852;-116.998;2023-05-23T11:12:04;99917.13;;;24.78
45701;BMP280;36277;32.852;-116.998;2023-05-23T11:19:38;99898.47;;;24.80
45701;BMP280;36277;32.852;-116.998;2023-05-23T11:22:08;99897.19;;;24.83
45701;BMP280;36277;32.852;-116.998;2023-05-23T11:24:54;99898.25;;;24.82
45701;BMP280;36277;32.852;-116.998;2023-05-23T11:27:30;99895.69;;;24.80
45701;BMP280;36277;32.852;-116.998;2023-05-23T11:30:13;99895.88;;;24.79
45701;BMP280;36277;32.852;-116.998;2023-05-23T11:32:41;99890.78;;;24.76
45701;BMP280;36277;32.852;-116.998;2023-05-23T11:35:11;99889.72;;;24.77
45701;BMP280;36277;32.852;-116.998;2023-05-23T11:37:38;99890.78;;;24.76
45701;BMP280;36277;32.852;-116.998;2023-05-23T11:40:29;99888.00;;;24.76
45701;BMP280;36277;32.852;-116.998;2023-05-23T11:43:02;99889.28;;;24.73
45701;BMP280;36277;32.852;-116.998;2023-05-23T11:45:30;99882.72;;;24.74
45701;BMP280;36277;32.852;-116.998;2023-05-23T11:47:57;99889.28;;;24.73
45701;BMP280;36277;32.852;-116.998;2023-05-23T11:50:23;99892.88;;;24.74
45701;BMP280;36277;32.852;-116.998;2023-05-23T11:52:50;99877.19;;;24.74
45701;BMP280;36277;32.852;-116.998;2023-05-23T11:55:20;99872.50;;;24.75
45701;BMP280;36277;32.852;-116.998;2023-05-23T11:57:47;99870.81;;;24.74
45701;BMP280;36277;32.852;-116.998;2023-05-23T12:00:15;99865.28;;;24.74
45701;BMP280;36277;32.852;-116.998;2023-05-23T12:02:43;99869.97;;;24.73
45701;BMP280;36277;32.852;-116.998;2023-05-23T12:05:11;99864.44;;;24.73
45701;BMP280;36277;32.852;-116.998;2023-05-23T12:07:48;99857.00;;;24.74
45701;BMP280;36277;32.852;-116.998;2023-05-23T12:10:15;99869.09;;;24.73
45701;BMP280;36277;32.852;-116.998;2023-05-23T12:12:42;99869.09;;;24.73
45701;BMP280;36277;32.852;-116.998;2023-05-23T12:15:10;99872.94;;;24.72
45701;BMP280;36277;32.852;-116.998;2023-05-23T12:17:37;99862.75;;;24.72
45701;BMP280;36277;32.852;-116.998;2023-05-23T12:20:05;99859.31;;;24.70
45701;BMP280;36277;32.852;-116.998;2023-05-23T12:22:32;99865.72;;;24.71
45701;BMP280;36277;32.852;-116.998;2023-05-23T12:24:58;99865.91;;;24.69
45701;BMP280;36277;32.852;-116.998;2023-05-23T12:27:33;99869.31;;;24.71
45701;BMP280;36277;32.852;-116.998;2023-05-23T12:30:05;99874.19;;;24.69
45701;BMP280;36277;32.852;-116.998;2023-05-23T12:32:32;99872.88;;;24.65
45701;BMP280;36277;32.852;-116.998;2023-05-23T12:34:58;99874.59;;;24.66
45701;BMP280;36277;32.852;-116.998;2023-05-23T12:37:25;99874.81;;;24.65
45701;BMP280;36277;32.852;-116.998;2023-05-23T12:39:51;99871.78;;;24.60
45701;BMP280;36277;32.852;-116.998;2023-05-23T12:42:18;99872.28;;;24.42
45701;BMP280;36277;32.852;-116.998;2023-05-23T12:44:44;99864.75;;;24.30
45701;BMP280;36277;32.852;-116.998;2023-05-23T12:47:11;99855.84;;;24.28
45701;BMP280;36277;32.852;-116.998;2023-05-23T12:49:38;99864.28;;;24.20
45701;BMP280;36277;32.852;-116.998;2023-05-23T12:52:04;99865.75;;;24.16
45701;BMP280;36277;32.852;-116.998;2023-05-23T12:54:30;99859.31;;;24.09
45701;BMP280;36277;32.852;-116.998;2023-05-23T12:56:57;99855.06;;;24.07
45701;BMP280;36277;32.852;-116.998;2023-05-23T12:59:23;99868.19;;;24.05
45701;BMP280;36277;32.852;-116.998;2023-05-23T13:01:49;99861.38;;;24.01
45701;BMP280;36277;32.852;-116.998;2023-05-23T13:04:15;99851.09;;;23.88
45701;BMP280;36277;32.852;-116.998;2023-05-23T13:06:41;99850.81;;;23.62
45701;BMP280;36277;32.852;-116.998;2023-05-23T13:09:08;99844.25;;;23.42
45701;BMP280;36277;32.852;-116.998;2023-05-23T13:11:34;99848.06;;;23.41
45701;BMP280;36277;32.852;-116.998;2023-05-23T13:14:02;99855.78;;;23.52
45701;BMP280;36277;32.852;-116.998;2023-05-23T13:16:28;99855.44;;;23.62
45701;BMP280;36277;32.852;-116.998;2023-05-23T13:18:55;99862.09;;;23.67
45701;BMP280;36277;32.852;-116.998;2023-05-23T13:21:21;99865.09;;;23.72
45701;BMP280;36277;32.852;-116.998;2023-05-23T13:23:47;99868.50;;;23.74
45701;BMP280;36277;32.852;-116.998;2023-05-23T13:26:13;99868.78;;;23.79
45701;BMP280;36277;32.852;-116.998;2023-05-23T13:28:40;99858.91;;;23.70
45701;BMP280;36277;32.852;-116.998;2023-05-23T13:31:06;99858.69;;;23.44
45701;BMP280;36277;32.852;-116.998;2023-05-23T13:33:32;99856.28;;;23.20
45701;BMP280;36277;32.852;-116.998;2023-05-23T13:35:59;99852.41;;;23.00
45701;BMP280;36277;32.852;-116.998;2023-05-23T13:38:25;99853.66;;;23.12
45701;BMP280;36277;32.852;-116.998;2023-05-23T13:40:52;99843.16;;;23.22
45701;BMP280;36277;32.852;-116.998;2023-05-23T13:43:18;99841.56;;;23.28
45701;BMP280;36277;32.852;-116.998;2023-05-23T13:45:45;99843.06;;;23.30
45701;BMP280;36277;32.852;-116.998;2023-05-23T13:48:12;99840.56;;;23.35
45701;BMP280;36277;32.852;-116.998;2023-05-23T13:50:38;99845.47;;;23.40
45701;BMP280;36277;32.852;-116.998;2023-05-23T13:53:05;99838.53;;;23.44